sensor_id;sensor_type;location;lat;lon;timestamp;pressure;altitude;pressure_sealevel;temperature;humidity
51781;BME280;37844;57.126;24.288;2023-04-02T00:01:35;101106.16;;;1.66;100.00
51781;BME280;37844;57.126;24.288;2023-04-02T00:04:20;101115.63;;;1.68;100.00
51781;BME280;37844;57.126;24.288;2023-04-02T00:07:24;101109.84;;;1.71;100.00
51781;BME280;37844;57.126;24.288;2023-04-02T00:16:07;101129.47;;;1.74;100.00
51781;BME280;37844;57.126;24.288;2023-04-02T00:18:54;101140.41;;;1.73;100.00
51781;BME280;37844;57.126;24.288;2023-04-02T00:21:39;101149.69;;;1.72;100.00
51781;BME280;37844;57.126;24.288;2023-04-02T00:24:25;101139.78;;;1.77;100.00
51781;BME280;37844;57.126;24.288;2023-04-02T00:27:10;101159.94;;;1.74;100.00
51781;BME280;37844;57.126;24.288;2023-04-02T00:29:55;101162.03;;;1.81;100.00
51781;BME280;37844;57.126;24.288;2023-04-02T00:32:39;101147.44;;;1.93;100.00
51781;BME280;37844;57.126;24.288;2023-04-02T00:35:27;101154.91;;;1.90;100.00
51781;BME280;37844;57.126;24.288;2023-04-02T00:38:30;101164.78;;;2.00;100.00
51781;BME280;37844;57.126;24.288;2023-04-02T00:41:17;101160.94;;;1.92;100.00
51781;BME280;37844;57.126;24.288;2023-04-02T00:44:03;101169.47;;;1.93;100.00
51781;BME280;37844;57.126;24.288;2023-04-02T00:46:48;101186.19;;;1.89;100.00
51781;BME280;37844;57.126;24.288;2023-04-02T00:49:39;101181.00;;;1.87;100.00
51781;BME280;37844;57.126;24.288;2023-04-02T00:52:25;101186.59;;;1.97;100.00
51781;BME280;37844;57.126;24.288;2023-04-02T00:58:15;101194.88;;;1.78;100.00
51781;BME280;37844;57.126;24.288;2023-04-02T01:01:02;101197.16;;;1.88;100.00
51781;BME280;37844;57.126;24.288;2023-04-02T01:03:57;101203.56;;;1.81;100.00
51781;BME280;37844;57.126;24.288;2023-04-02T01:06:41;101194.63;;;1.88;100.00
51781;BME280;37844;57.126;24.288;2023-04-02T01:12:26;101148.25;;;1.46;100.00
51781;BME280;37844;57.126;24.288;2023-04-02T01:18:18;101217.50;;;1.88;100.00
51781;BME280;37844;57.126;24.288;2023-04-02T01:23:59;101203.31;;;1.77;100.00
51781;BME280;37844;57.126;24.288;2023-04-02T01:26:57;101215.94;;;1.75;100.00
51781;BME280;37844;57.126;24.288;2023-04-02T01:29:45;101211.75;;;1.76;100.00
51781;BME280;37844;57.126;24.288;2023-04-02T01:32:31;101214.34;;;1.77;100.00
51781;BME280;37844;57.126;24.288;2023-04-02T01:35:16;101227.84;;;1.61;100.00
51781;BME280;37844;57.126;24.288;2023-04-02T01:38:06;101229.06;;;1.68;100.00
51781;BME280;37844;57.126;24.288;2023-04-02T01:46:32;101242.56;;;1.82;100.00
51781;BME280;37844;57.126;24.288;2023-04-02T01:49:18;101241.78;;;1.83;100.00
51781;BME280;37844;57.126;24.288;2023-04-02T01:52:02;101246.09;;;1.69;100.00
51781;BME280;37844;57.126;24.288;2023-04-02T01:54:48;101253.88;;;1.72;100.00
51781;BME280;37844;57.126;24.288;2023-04-02T01:57:34;101256.44;;;1.72;100.00
51781;BME280;37844;57.126;24.288;2023-04-02T02:00:18;101259.78;;;1.71;100.00
51781;BME280;37844;57.126;24.288;2023-04-02T02:03:03;101262.38;;;1.58;100.00
51781;BME280;37844;57.126;24.288;2023-04-02T02:05:48;101269.13;;;1.57;100.00
51781;BME280;37844;57.126;24.288;2023-04-02T02:11:21;101273.84;;;1.51;100.00
51781;BME280;37844;57.126;24.288;2023-04-02T02:14:16;101277.34;;;1.38;100.00
51781;BME280;37844;57.126;24.288;2023-04-02T02:17:01;101276.72;;;1.42;100.00
51781;BME280;37844;57.126;24.288;2023-04-02T02:19:48;101281.28;;;1.33;100.00
51781;BME280;37844;57.126;24.288;2023-04-02T02:22:35;101295.13;;;1.23;100.00
51781;BME280;37844;57.126;24.288;2023-04-02T02:25:23;101288.00;;;1.18;100.00
51781;BME280;37844;57.126;24.288;2023-04-02T02:28:18;101293.44;;;1.24;100.00
51781;BME280;37844;57.126;24.288;2023-04-02T02:31:04;101298.94;;;1.17;100.00
51781;BME280;37844;57.126;24.288;2023-04-02T02:33:50;101299.00;;;1.03;100.00
51781;BME280;37844;57.126;24.288;2023-04-02T02:36:51;101313.16;;;1.00;100.00
51781;BME280;37844;57.126;24.288;2023-04-02T02:39:38;101319.56;;;0.80;100.00
51781;BME280;37844;57.126;24.288;2023-04-02T02:42:25;101324.88;;;0.98;100.00
51781;BME280;37844;57.126;24.288;2023-04-02T02:45:15;101329.28;;;1.00;100.00
51781;BME280;37844;57.126;24.288;2023-04-02T02:48:01;101336.31;;;0.91;100.00
51781;BME280;37844;57.126;24.288;2023-04-02T02:50:46;101346.00;;;0.83;100.00
51781;BME280;37844;57.126;24.288;2023-04-02T02:53:30;101338.09;;;0.79;100.00
51781;BME280;37844;57.126;24.288;2023-04-02T02:56:15;101344.56;;;0.74;100.00
51781;BME280;37844;57.126;24.288;2023-04-02T02:58:59;101355.66;;;0.76;100.00
51781;BME280;37844;57.126;24.288;2023-04-02T03:01:44;101355.47;;;0.73;100.00
51781;BME280;37844;57.126;24.288;2023-04-02T03:04:30;101368.44;;;0.64;100.00
51781;BME280;37844;57.126;24.288;2023-04-02T03:07:18;101374.91;;;0.72;100.00
51781;BME280;37844;57.126;24.288;2023-04-02T03:10:15;101376.84;;;0.63;100.00
51781;BME280;37844;57.126;24.288;2023-04-02T03:13:44;101386.63;;;0.44;100.00
51781;BME280;37844;57.126;24.288;2023-04-02T03:21:56;101401.94;;;0.32;100.00
51781;BME280;37844;57.126;24.288;2023-04-02T03:25:32;101409.19;;;0.14;100.00
51781;BME280;37844;57.126;24.288;2023-04-02T03:27:50;101407.28;;;0.10;100.00
51781;BME280;37844;57.126;24.288;2023-04-02T03:30:52;101414.50;;;0.17;100.00
51781;BME280;37844;57.126;24.288;2023-04-02T03:33:39;101414.19;;;0.26;100.00
51781;BME280;37844;57.126;24.288;2023-04-02T03:36:37;101427.75;;;0.13;100.00
51781;BME280;37844;57.126;24.288;2023-04-02T03:42:18;101437.47;;;0.07;100.00
51781;BME280;37844;57.126;24.288;2023-04-02T03:45:06;101434.63;;;0.02;100.00
51781;BME280;37844;57.126;24.288;2023-04-02T03:47:57;101449.44;;;-0.04;100.00
51781;BME280;37844;57.126;24.288;2023-04-02T03:50:46;101444.56;;;-0.01;100.00
51781;BME280;37844;57.126;24.288;2023-04-02T03:53:30;101456.88;;;0.06;100.00
51781;BME280;37844;57.126;24.288;2023-04-02T03:56:24;101457.06;;;0.09;100.00
51781;BME280;37844;57.126;24.288;2023-04-02T03:59:12;101463.63;;;0.19;100.00
51781;BME280;37844;57.126;24.288;2023-04-02T04:02:10;101467.50;;;0.14;100.00
51781;BME280;37844;57.126;24.288;2023-04-02T04:04:57;101472.25;;;0.09;100.00
51781;BME280;37844;57.126;24.288;2023-04-02T04:07:41;101481.34;;;0.06;100.00
51781;BME280;37844;57.126;24.288;2023-04-02T04:10:26;101490.81;;;0.08;100.00
51781;BME280;37844;57.126;24.288;2023-04-02T04:13:12;101492.03;;;0.02;100.00
51781;BME280;37844;57.126;24.288;2023-04-02T04:16:02;101494.69;;;0.03;100.00
51781;BME280;37844;57.126;24.288;2023-04-02T04:18:58;101504.53;;;0.12;100.00
51781;BME280;37844;57.126;24.288;2023-04-02T04:21:45;101510.09;;;0.31;100.00
51781;BME280;37844;57.126;24.288;2023-04-02T04:24:29;101514.81;;;0.52;100.00
51781;BME280;37844;57.126;24.288;2023-04-02T04:30:18;101516.53;;;0.91;100.00
51781;BME280;37844;57.126;24.288;2023-04-02T04:33:09;101521.22;;;1.12;100.00
51781;BME280;37844;57.126;24.288;2023-04-02T04:35:55;101532.53;;;1.30;100.00
51781;BME280;37844;57.126;24.288;2023-04-02T04:38:40;101538.47;;;1.44;100.00
51781;BME280;37844;57.126;24.288;2023-04-02T04:41:28;101551.81;;;1.68;100.00
51781;BME280;37844;57.126;24.288;2023-04-02T04:44:25;101547.47;;;1.80;100.00
51781;BME280;37844;57.126;24.288;2023-04-02T04:47:46;101562.69;;;1.94;100.00
51781;BME280;37844;57.126;24.288;2023-04-02T04:50:32;101565.94;;;2.19;100.00
51781;BME280;37844;57.126;24.288;2023-04-02T04:53:21;101561.53;;;2.45;100.00
51781;BME280;37844;57.126;24.288;2023-04-02T04:56:05;101573.94;;;2.68;100.00
51781;BME280;37844;57.126;24.288;2023-04-02T04:59:03;101577.34;;;2.98;100.00
51781;BME280;37844;57.126;24.288;2023-04-02T05:01:52;101588.03;;;3.37;100.00
51781;BME280;37844;57.126;24.288;2023-04-02T05:04:40;101590.72;;;3.55;100.00
51781;BME280;37844;57.126;24.288;2023-04-02T05:07:26;101597.06;;;3.78;100.00
51781;BME280;37844;57.126;24.288;2023-04-02T05:16:12;101607.88;;;4.22;98.54
51781;BME280;37844;57.126;24.288;2023-04-02T05:21:48;101603.06;;;4.77;94.37
51781;BME280;37844;57.126;24.288;2023-04-02T05:24:45;101609.97;;;5.14;93.22
51781;BME280;37844;57.126;24.288;2023-04-02T05:28:14;101602.00;;;5.24;90.51
51781;BME280;37844;57.126;24.288;2023-04-02T05:33:30;101609.56;;;5.77;86.08
51781;BME280;37844;57.126;24.288;2023-04-02T05:36:19;101618.50;;;6.04;83.66
51781;BME280;37844;57.126;24.288;2023-04-02T05:39:07;101624.00;;;6.31;81.77
51781;BME280;37844;57.126;24.288;2023-04-02T05:42:04;101628.16;;;6.68;80.20
51781;BME280;37844;57.126;24.288;2023-04-02T05:47:52;101643.50;;;7.72;75.63
51781;BME280;37844;57.126;24.288;2023-04-02T05:50:46;101639.16;;;8.38;72.25
51781;BME280;37844;57.126;24.288;2023-04-02T05:59:38;101654.53;;;8.85;66.91
51781;BME280;37844;57.126;24.288;2023-04-02T06:05:13;101657.25;;;9.41;64.01
51781;BME280;37844;57.126;24.288;2023-04-02T06:08:04;101664.34;;;9.75;61.84
51781;BME280;37844;57.126;24.288;2023-04-02T06:10:58;101671.72;;;10.49;61.09
51781;BME280;37844;57.126;24.288;2023-04-02T06:13:43;101667.06;;;10.67;58.70
51781;BME280;37844;57.126;24.288;2023-04-02T06:16:28;101682.31;;;11.24;57.26
51781;BME280;37844;57.126;24.288;2023-04-02T06:19:21;101681.56;;;11.27;55.71
51781;BME280;37844;57.126;24.288;2023-04-02T06:22:42;101688.03;;;11.46;55.66
51781;BME280;37844;57.126;24.288;2023-04-02T06:25:20;101687.06;;;11.77;53.17
51781;BME280;37844;57.126;24.288;2023-04-02T06:28:05;101701.97;;;11.87;52.47
51781;BME280;37844;57.126;24.288;2023-04-02T06:31:00;101698.72;;;12.37;51.48
51781;BME280;37844;57.126;24.288;2023-04-02T06:33:45;101705.06;;;12.51;50.29
51781;BME280;37844;57.126;24.288;2023-04-02T06:36:35;101699.63;;;12.83;48.79
51781;BME280;37844;57.126;24.288;2023-04-02T06:39:20;101708.38;;;13.90;48.00
51781;BME280;37844;57.126;24.288;2023-04-02T06:42:08;101706.78;;;13.98;47.10
51781;BME280;37844;57.126;24.288;2023-04-02T06:44:54;101714.38;;;13.88;46.76
51781;BME280;37844;57.126;24.288;2023-04-02T06:47:42;101701.78;;;14.79;46.06
51781;BME280;37844;57.126;24.288;2023-04-02T06:53:21;101713.03;;;14.78;44.06
51781;BME280;37844;57.126;24.288;2023-04-02T06:59:10;101721.84;;;14.93;42.65
51781;BME280;37844;57.126;24.288;2023-04-02T07:01:56;101732.75;;;15.48;43.24
51781;BME280;37844;57.126;24.288;2023-04-02T07:04:41;101731.69;;;16.56;42.00
51781;BME280;37844;57.126;24.288;2023-04-02T07:07:25;101731.88;;;16.94;41.75
51781;BME280;37844;57.126;24.288;2023-04-02T07:10:10;101726.63;;;16.87;40.05
51781;BME280;37844;57.126;24.288;2023-04-02T07:12:55;101734.81;;;15.87;40.10
51781;BME280;37844;57.126;24.288;2023-04-02T07:15:39;101741.84;;;15.99;40.55
51781;BME280;37844;57.126;24.288;2023-04-02T07:18:30;101744.16;;;15.67;40.23
51781;BME280;37844;57.126;24.288;2023-04-02T07:21:15;101754.78;;;15.01;40.02
51781;BME280;37844;57.126;24.288;2023-04-02T07:23:58;101748.16;;;14.53;40.70
51781;BME280;37844;57.126;24.288;2023-04-02T07:26:42;101751.00;;;14.73;40.27
51781;BME280;37844;57.126;24.288;2023-04-02T07:29:26;101756.00;;;15.37;41.17
51781;BME280;37844;57.126;24.288;2023-04-02T07:32:11;101765.44;;;16.31;39.84
51781;BME280;37844;57.126;24.288;2023-04-02T07:34:55;101764.09;;;17.55;39.56
51781;BME280;37844;57.126;24.288;2023-04-02T07:37:38;101758.00;;;17.60;38.55
51781;BME280;37844;57.126;24.288;2023-04-02T07:40:22;101753.63;;;17.09;37.82
51781;BME280;37844;57.126;24.288;2023-04-02T07:43:06;101774.38;;;16.89;38.03
51781;BME280;37844;57.126;24.288;2023-04-02T07:45:50;101775.44;;;17.85;36.52
51781;BME280;37844;57.126;24.288;2023-04-02T07:48:35;101780.56;;;18.46;37.38
51781;BME280;37844;57.126;24.288;2023-04-02T07:51:20;101778.88;;;17.56;36.50
51781;BME280;37844;57.126;24.288;2023-04-02T07:54:04;101777.09;;;17.36;35.93
51781;BME280;37844;57.126;24.288;2023-04-02T07:56:50;101780.66;;;17.85;37.03
51781;BME280;37844;57.126;24.288;2023-04-02T07:59:34;101769.31;;;17.49;36.59
51781;BME280;37844;57.126;24.288;2023-04-02T08:02:18;101788.41;;;17.32;35.54
51781;BME280;37844;57.126;24.288;2023-04-02T08:05:03;101791.88;;;17.30;36.43
51781;BME280;37844;57.126;24.288;2023-04-02T08:07:51;101791.06;;;17.95;35.62
51781;BME280;37844;57.126;24.288;2023-04-02T08:10:35;101802.31;;;18.33;36.23
51781;BME280;37844;57.126;24.288;2023-04-02T08:13:19;101809.22;;;18.61;33.99
51781;BME280;37844;57.126;24.288;2023-04-02T08:16:03;101816.59;;;16.28;34.61
51781;BME280;37844;57.126;24.288;2023-04-02T08:18:48;101802.84;;;15.40;36.32
51781;BME280;37844;57.126;24.288;2023-04-02T08:21:32;101815.63;;;16.14;35.90
51781;BME280;37844;57.126;24.288;2023-04-02T08:24:16;101811.19;;;15.13;34.81
51781;BME280;37844;57.126;24.288;2023-04-02T08:27:03;101809.78;;;14.10;35.81
51781;BME280;37844;57.126;24.288;2023-04-02T08:29:47;101819.63;;;14.94;36.38
51781;BME280;37844;57.126;24.288;2023-04-02T08:32:31;101818.97;;;15.12;36.06
51781;BME280;37844;57.126;24.288;2023-04-02T08:35:16;101806.78;;;15.92;36.22
51781;BME280;37844;57.126;24.288;2023-04-02T08:38:00;101837.00;;;14.98;34.89
51781;BME280;37844;57.126;24.288;2023-04-02T08:40:45;101833.88;;;15.30;36.08
51781;BME280;37844;57.126;24.288;2023-04-02T08:43:53;101822.28;;;15.79;35.50
51781;BME280;37844;57.126;24.288;2023-04-02T08:46:42;101815.44;;;15.87;35.27
51781;BME280;37844;57.126;24.288;2023-04-02T08:49:36;101827.16;;;16.54;35.46
51781;BME280;37844;57.126;24.288;2023-04-02T08:52:27;101834.41;;;17.20;34.23
51781;BME280;37844;57.126;24.288;2023-04-02T09:04:20;101876.13;;;13.09;34.92
51781;BME280;37844;57.126;24.288;2023-04-02T09:07:08;101876.00;;;12.24;36.10
51781;BME280;37844;57.126;24.288;2023-04-02T09:09:54;101875.25;;;11.95;36.01
51781;BME280;37844;57.126;24.288;2023-04-02T09:12:39;101858.53;;;13.32;35.81
51781;BME280;37844;57.126;24.288;2023-04-02T09:15:29;101873.50;;;13.97;36.07
51781;BME280;37844;57.126;24.288;2023-04-02T09:18:17;101872.97;;;14.15;35.48
51781;BME280;37844;57.126;24.288;2023-04-02T09:21:01;101866.78;;;14.09;35.97
51781;BME280;37844;57.126;24.288;2023-04-02T09:23:56;101883.41;;;13.71;35.81
51781;BME280;37844;57.126;24.288;2023-04-02T09:26:40;101885.13;;;12.84;36.84
51781;BME280;37844;57.126;24.288;2023-04-02T09:29:27;101881.91;;;13.81;35.70
51781;BME280;37844;57.126;24.288;2023-04-02T09:35:15;101874.19;;;11.87;36.13
51781;BME280;37844;57.126;24.288;2023-04-02T09:43:37;101897.66;;;13.07;37.03
51781;BME280;37844;57.126;24.288;2023-04-02T09:46:22;101890.91;;;13.13;37.60
51781;BME280;37844;57.126;24.288;2023-04-02T09:49:10;101885.69;;;13.53;36.98
51781;BME280;37844;57.126;24.288;2023-04-02T09:52:15;101897.19;;;12.84;37.66
51781;BME280;37844;57.126;24.288;2023-04-02T09:55:09;101905.97;;;12.92;38.23
51781;BME280;37844;57.126;24.288;2023-04-02T10:00:55;101900.13;;;12.26;39.30
51781;BME280;37844;57.126;24.288;2023-04-02T10:03:40;101908.06;;;12.33;40.35
51781;BME280;37844;57.126;24.288;2023-04-02T10:06:26;101914.31;;;11.44;38.85
51781;BME280;37844;57.126;24.288;2023-04-02T10:09:19;101918.03;;;10.95;40.37
51781;BME280;37844;57.126;24.288;2023-04-02T10:12:04;101916.81;;;11.11;40.53
51781;BME280;37844;57.126;24.288;2023-04-02T10:14:49;101926.06;;;10.75;40.66
51781;BME280;37844;57.126;24.288;2023-04-02T10:17:35;101930.00;;;10.64;41.13
51781;BME280;37844;57.126;24.288;2023-04-02T10:20:21;101932.09;;;10.49;40.90
51781;BME280;37844;57.126;24.288;2023-04-02T10:23:09;101927.69;;;10.21;40.90
51781;BME280;37844;57.126;24.288;2023-04-02T10:26:02;101926.97;;;9.99;40.87
51781;BME280;37844;57.126;24.288;2023-04-02T10:31:56;101938.94;;;9.98;41.87
51781;BME280;37844;57.126;24.288;2023-04-02T10:35:00;101950.69;;;9.90;41.86
51781;BME280;37844;57.126;24.288;2023-04-02T10:43:25;101953.09;;;9.15;42.12
51781;BME280;37844;57.126;24.288;2023-04-02T10:49:21;101949.91;;;8.56;42.32
51781;BME280;37844;57.126;24.288;2023-04-02T10:54:59;101961.72;;;8.32;41.90
51781;BME280;37844;57.126;24.288;2023-04-02T10:57:45;101973.81;;;8.54;41.15
51781;BME280;37844;57.126;24.288;2023-04-02T11:00:30;101965.94;;;8.93;41.73
51781;BME280;37844;57.126;24.288;2023-04-02T11:06:23;101971.69;;;8.64;41.19
51781;BME280;37844;57.126;24.288;2023-04-02T11:09:13;101979.88;;;8.77;41.47
51781;BME280;37844;57.126;24.288;2023-04-02T11:11:58;101977.25;;;8.54;40.51
51781;BME280;37844;57.126;24.288;2023-04-02T11:14:44;101981.88;;;8.63;40.15
51781;BME280;37844;57.126;24.288;2023-04-02T11:17:28;101972.84;;;8.31;40.11
51781;BME280;37844;57.126;24.288;2023-04-02T11:23:19;101981.91;;;8.03;40.13
51781;BME280;37844;57.126;24.288;2023-04-02T11:29:17;101993.72;;;7.99;41.60
51781;BME280;37844;57.126;24.288;2023-04-02T11:32:13;101992.94;;;8.00;41.59
51781;BME280;37844;57.126;24.288;2023-04-02T11:34:59;101997.56;;;8.09;41.88
51781;BME280;37844;57.126;24.288;2023-04-02T11:37:44;102006.72;;;8.02;41.43
51781;BME280;37844;57.126;24.288;2023-04-02T11:40:48;102008.94;;;7.75;41.18
51781;BME280;37844;57.126;24.288;2023-04-02T11:52:26;102019.28;;;7.77;41.98
51781;BME280;37844;57.126;24.288;2023-04-02T11:55:19;101971.06;;;7.50;41.54
51781;BME280;37844;57.126;24.288;2023-04-02T12:09:55;102019.53;;;7.08;42.64
51781;BME280;37844;57.126;24.288;2023-04-02T12:12:40;102029.72;;;6.89;41.20
51781;BME280;37844;57.126;24.288;2023-04-02T12:15:30;102034.31;;;7.14;42.21
51781;BME280;37844;57.126;24.288;2023-04-02T12:18:19;102049.28;;;7.40;43.18
51781;BME280;37844;57.126;24.288;2023-04-02T12:21:04;102037.22;;;7.57;44.64
51781;BME280;37844;57.126;24.288;2023-04-02T12:23:49;102045.38;;;7.31;43.74
51781;BME280;37844;57.126;24.288;2023-04-02T12:26:35;102045.59;;;7.53;43.16
51781;BME280;37844;57.126;24.288;2023-04-02T12:29:25;102041.19;;;7.51;42.30
51781;BME280;37844;57.126;24.288;2023-04-02T12:32:31;102048.38;;;7.40;42.17
51781;BME280;37844;57.126;24.288;2023-04-02T12:35:35;102050.72;;;7.35;43.22
51781;BME280;37844;57.126;24.288;2023-04-02T12:38:19;102048.28;;;7.56;44.64
51781;BME280;37844;57.126;24.288;2023-04-02T12:41:05;102060.41;;;7.41;44.38
51781;BME280;37844;57.126;24.288;2023-04-02T12:44:02;102059.63;;;7.61;45.06
51781;BME280;37844;57.126;24.288;2023-04-02T12:46:46;102065.34;;;7.74;44.28
51781;BME280;37844;57.126;24.288;2023-04-02T12:49:38;102069.97;;;7.63;43.47
51781;BME280;37844;57.126;24.288;2023-04-02T12:52:24;102068.38;;;7.65;42.57
51781;BME280;37844;57.126;24.288;2023-04-02T12:55:21;102055.09;;;7.56;42.36
51781;BME280;37844;57.126;24.288;2023-04-02T12:58:17;102071.69;;;7.44;42.55
51781;BME280;37844;57.126;24.288;2023-04-02T13:04:04;102075.63;;;7.56;43.53
51781;BME280;37844;57.126;24.288;2023-04-02T13:06:50;102084.63;;;7.65;44.22
51781;BME280;37844;57.126;24.288;2023-04-02T13:09:49;102084.94;;;7.54;49.42
51781;BME280;37844;57.126;24.288;2023-04-02T13:12:46;102105.94;;;7.27;55.76
51781;BME280;37844;57.126;24.288;2023-04-02T13:15:31;102093.44;;;6.99;57.79
51781;BME280;37844;57.126;24.288;2023-04-02T13:18:20;102108.75;;;6.63;57.43
51781;BME280;37844;57.126;24.288;2023-04-02T13:23:49;102115.13;;;6.71;59.57
51781;BME280;37844;57.126;24.288;2023-04-02T13:26:33;102077.53;;;6.37;57.92
51781;BME280;37844;57.126;24.288;2023-04-02T13:32:06;102125.47;;;6.40;57.83
51781;BME280;37844;57.126;24.288;2023-04-02T13:34:54;102126.69;;;6.47;59.39
51781;BME280;37844;57.126;24.288;2023-04-02T13:37:38;102123.88;;;6.26;60.53
51781;BME280;37844;57.126;24.288;2023-04-02T13:40:22;102128.28;;;6.28;60.21
51781;BME280;37844;57.126;24.288;2023-04-02T13:43:06;102121.25;;;6.24;59.72
51781;BME280;37844;57.126;24.288;2023-04-02T13:45:51;102137.56;;;6.26;59.13
51781;BME280;37844;57.126;24.288;2023-04-02T13:48:35;102137.41;;;6.23;57.97
51781;BME280;37844;57.126;24.288;2023-04-02T13:51:23;102138.50;;;6.12;57.54
51781;BME280;37844;57.126;24.288;2023-04-02T13:54:30;102146.09;;;5.94;58.98
51781;BME280;37844;57.126;24.288;2023-04-02T13:57:13;102145.47;;;5.98;59.95
51781;BME280;37844;57.126;24.288;2023-04-02T13:59:57;102148.34;;;6.04;60.96
51781;BME280;37844;57.126;24.288;2023-04-02T14:02:43;102145.72;;;6.19;61.09
51781;BME280;37844;57.126;24.288;2023-04-02T14:14:36;102149.56;;;6.27;60.37
51781;BME280;37844;57.126;24.288;2023-04-02T14:17:38;102147.38;;;5.87;59.78
51781;BME280;37844;57.126;24.288;2023-04-02T14:29:03;102157.38;;;5.83;61.04
51781;BME280;37844;57.126;24.288;2023-04-02T14:32:02;102155.69;;;5.98;61.25
51781;BME280;37844;57.126;24.288;2023-04-02T14:37:55;102161.22;;;6.06;59.85
51781;BME280;37844;57.126;24.288;2023-04-02T14:40:44;102166.56;;;5.94;59.88
51781;BME280;37844;57.126;24.288;2023-04-02T14:46:15;102176.16;;;5.83;61.25
51781;BME280;37844;57.126;24.288;2023-04-02T14:51:57;102181.31;;;5.68;61.06
51781;BME280;37844;57.126;24.288;2023-04-02T15:03:12;102189.97;;;5.41;61.33
51781;BME280;37844;57.126;24.288;2023-04-02T15:06:04;102198.97;;;5.49;62.44
51781;BME280;37844;57.126;24.288;2023-04-02T15:08:50;102202.06;;;5.58;61.87
51781;BME280;37844;57.126;24.288;2023-04-02T15:11:36;102191.03;;;5.44;62.43
51781;BME280;37844;57.126;24.288;2023-04-02T15:14:22;102197.75;;;5.27;62.42
51781;BME280;37844;57.126;24.288;2023-04-02T15:17:09;102203.13;;;5.32;62.88
51781;BME280;37844;57.126;24.288;2023-04-02T15:19:56;102204.38;;;5.39;63.64
51781;BME280;37844;57.126;24.288;2023-04-02T15:25:38;102210.38;;;5.24;64.58
51781;BME280;37844;57.126;24.288;2023-04-02T15:28:31;102212.81;;;5.23;65.76
51781;BME280;37844;57.126;24.288;2023-04-02T15:31:18;102216.88;;;5.34;66.04
51781;BME280;37844;57.126;24.288;2023-04-02T15:37:21;102217.94;;;5.08;65.69
51781;BME280;37844;57.126;24.288;2023-04-02T15:49:07;102233.69;;;4.44;70.15
51781;BME280;37844;57.126;24.288;2023-04-02T15:52:07;102234.84;;;4.36;70.05
51781;BME280;37844;57.126;24.288;2023-04-02T15:54:55;102228.47;;;4.43;70.04
51781;BME280;37844;57.126;24.288;2023-04-02T16:00:30;102246.16;;;4.53;68.75
51781;BME280;37844;57.126;24.288;2023-04-02T16:03:17;102248.81;;;4.41;69.34
51781;BME280;37844;57.126;24.288;2023-04-02T16:11:54;102261.53;;;4.55;69.15
51781;BME280;37844;57.126;24.288;2023-04-02T16:14:41;102270.34;;;4.60;68.77
51781;BME280;37844;57.126;24.288;2023-04-02T16:17:27;102263.69;;;4.62;69.38
51781;BME280;37844;57.126;24.288;2023-04-02T16:20:15;102272.56;;;4.54;69.53
51781;BME280;37844;57.126;24.288;2023-04-02T16:23:10;102277.16;;;4.46;70.54
51781;BME280;37844;57.126;24.288;2023-04-02T16:38:22;102296.63;;;4.31;55.50
51781;BME280;37844;57.126;24.288;2023-04-02T16:52:06;102327.81;;;3.73;52.27
51781;BME280;37844;57.126;24.288;2023-04-02T17:00:47;102349.09;;;3.24;51.61
51781;BME280;37844;57.126;24.288;2023-04-02T17:06:51;102362.59;;;2.97;51.88
51781;BME280;37844;57.126;24.288;2023-04-02T17:10:11;102365.00;;;3.08;52.63
51781;BME280;37844;57.126;24.288;2023-04-02T17:12:37;102371.22;;;3.00;51.98
51781;BME280;37844;57.126;24.288;2023-04-02T17:15:35;102365.63;;;2.92;52.09
51781;BME280;37844;57.126;24.288;2023-04-02T17:18:22;102379.34;;;2.82;52.90
51781;BME280;37844;57.126;24.288;2023-04-02T17:21:08;102378.47;;;2.82;53.35
51781;BME280;37844;57.126;24.288;2023-04-02T17:26:39;102392.66;;;2.78;53.57
51781;BME280;37844;57.126;24.288;2023-04-02T17:29:28;102400.97;;;2.64;52.96
51781;BME280;37844;57.126;24.288;2023-04-02T17:32:20;102411.47;;;2.57;53.89
51781;BME280;37844;57.126;24.288;2023-04-02T17:35:26;102424.97;;;2.55;53.78
51781;BME280;37844;57.126;24.288;2023-04-02T17:41:37;102424.28;;;2.46;53.42
51781;BME280;37844;57.126;24.288;2023-04-02T17:44:27;102428.16;;;2.29;53.90
51781;BME280;37844;57.126;24.288;2023-04-02T17:47:21;102432.34;;;2.17;53.47
51781;BME280;37844;57.126;24.288;2023-04-02T17:53:20;102436.56;;;2.17;53.73
51781;BME280;37844;57.126;24.288;2023-04-02T17:56:33;102452.00;;;2.08;53.74
51781;BME280;37844;57.126;24.288;2023-04-02T17:59:44;102444.91;;;2.04;54.20
51781;BME280;37844;57.126;24.288;2023-04-02T18:11:30;102467.75;;;1.92;55.12
51781;BME280;37844;57.126;24.288;2023-04-02T18:17:08;102483.63;;;1.78;56.04
51781;BME280;37844;57.126;24.288;2023-04-02T18:20:02;102489.19;;;1.84;55.48
51781;BME280;37844;57.126;24.288;2023-04-02T18:31:42;102503.31;;;1.58;55.37
51781;BME280;37844;57.126;24.288;2023-04-02T18:40:41;102523.72;;;1.70;55.19
51781;BME280;37844;57.126;24.288;2023-04-02T18:46:13;102532.28;;;1.60;55.52
51781;BME280;37844;57.126;24.288;2023-04-02T18:51:42;102538.16;;;1.59;55.42
51781;BME280;37844;57.126;24.288;2023-04-02T18:54:33;102540.03;;;1.62;56.02
51781;BME280;37844;57.126;24.288;2023-04-02T18:57:27;102537.81;;;1.44;55.84
51781;BME280;37844;57.126;24.288;2023-04-02T19:00:15;102541.00;;;1.42;56.58
51781;BME280;37844;57.126;24.288;2023-04-02T19:08:57;102544.88;;;1.26;56.01
51781;BME280;37844;57.126;24.288;2023-04-02T19:11:43;102558.09;;;1.22;56.68
51781;BME280;37844;57.126;24.288;2023-04-02T19:14:27;102550.75;;;1.15;56.33
51781;BME280;37844;57.126;24.288;2023-04-02T19:28:42;102568.38;;;1.24;57.71